Time;durP1;ratioP1;P1;durP2;ratioP2;P2;SDS_P1;SDS_P2;PMS_P1;PMS_P2;Temp;Humidity;BMP_temperature;BMP_pressure;BME280_temperature;BME280_humidity;BME280_pressure;Samples;Min_cycle;Max_cycle;Signal;HPM_P1;HPM_P2
2022/10/22 00:01:32;;;;;;;0.75;0.43;;;14.60;99.90;;;;;;5076344;28;20072;-68
2022/10/22 00:03:58;;;;;;;1.27;0.25;;;14.50;99.90;;;;;;5074972;28;20033;-68
2022/10/22 00:06:24;;;;;;;2.25;0.40;;;14.40;99.90;;;;;;5076362;28;20047;-68
2022/10/22 00:08:50;;;;;;;1.85;0.45;;;14.30;99.90;;;;;;5075084;28;20040;-69
2022/10/22 00:11:18;;;;;;;1.00;0.40;;;14.30;99.90;;;;;;5074914;28;20515;-69
2022/10/22 00:13:45;;;;;;;1.17;0.40;;;14.30;99.90;;;;;;5076392;28;20415;-68
2022/10/22 00:16:11;;;;;;;0.75;0.50;;;14.30;99.90;;;;;;5076336;28;20040;-69
2022/10/22 00:18:38;;;;;;;1.27;0.45;;;14.20;99.90;;;;;;5076341;28;20063;-68
2022/10/22 00:21:05;;;;;;;1.92;0.63;;;14.30;99.90;;;;;;5076225;28;20047;-68
2022/10/22 00:23:31;;;;;;;0.77;0.40;;;14.30;99.90;;;;;;5075936;28;20041;-69
2022/10/22 00:25:56;;;;;;;1.60;0.40;;;14.30;99.90;;;;;;5075845;28;20422;-70
2022/10/22 00:28:23;;;;;;;0.88;0.60;;;14.30;99.90;;;;;;5076003;28;20048;-70
2022/10/22 00:30:57;;;;;;;1.85;0.75;;;14.20;99.90;;;;;;5074714;28;20407;-69
2022/10/22 00:33:24;;;;;;;1.50;0.52;;;14.10;99.90;;;;;;5075899;28;20530;-68
2022/10/22 00:35:50;;;;;;;1.13;0.60;;;14.10;99.90;;;;;;5075910;28;20040;-69
2022/10/22 00:38:16;;;;;;;2.47;0.65;;;14.40;99.90;;;;;;5075839;28;20089;-69
2022/10/22 00:40:42;;;;;;;2.40;0.38;;;14.60;99.90;;;;;;5074367;28;20040;-69
2022/10/22 00:43:16;;;;;;;0.73;0.40;;;14.60;99.90;;;;;;5074482;28;20037;-68
2022/10/22 00:45:43;;;;;;;1.60;0.47;;;14.60;99.90;;;;;;5075849;28;20050;-69
2022/10/22 00:48:30;;;;;;;0.90;0.32;;;14.60;99.90;;;;;;5075755;28;20056;-68
2022/10/22 00:51:05;;;;;;;3.13;0.50;;;14.50;99.90;;;;;;5074007;28;20054;-68
2022/10/22 00:53:33;;;;;;;3.30;0.47;;;14.40;99.90;;;;;;5074023;28;20475;-69
2022/10/22 00:56:00;;;;;;;4.13;0.50;;;14.30;99.90;;;;;;5074019;28;20024;-69
2022/10/22 00:58:30;;;;;;;2.35;0.50;;;14.20;99.90;;;;;;5075275;28;20045;-69
2022/10/22 01:00:56;;;;;;;0.60;0.50;;;14.20;99.90;;;;;;5075317;28;20040;-68
2022/10/22 01:03:23;;;;;;;0.68;0.47;;;14.10;99.90;;;;;;5075153;28;20049;-69
2022/10/22 01:06:02;;;;;;;0.52;0.50;;;14.20;99.90;;;;;;5074988;28;20044;-69
2022/10/22 01:08:50;;;;;;;0.28;0.28;;;14.20;99.90;;;;;;5075047;28;20430;-69
2022/10/22 01:11:35;;;;;;;0.73;0.32;;;14.20;99.90;;;;;;5073869;28;20080;-69
2022/10/22 01:14:17;;;;;;;0.50;0.20;;;14.20;99.90;;;;;;5074892;28;20067;-69
2022/10/22 01:16:58;;;;;;;1.05;0.85;;;14.30;99.90;;;;;;5075172;28;20139;-70
2022/10/22 01:19:45;;;;;;;6.28;0.68;;;14.20;99.90;;;;;;5075065;28;20052;-68
2022/10/22 01:22:29;;;;;;;1.90;0.60;;;14.10;99.90;;;;;;5073276;28;20032;-69
2022/10/22 01:25:04;;;;;;;1.05;0.30;;;14.00;99.90;;;;;;5074767;28;20488;-68
2022/10/22 01:27:32;;;;;;;1.40;0.40;;;13.90;99.90;;;;;;5066995;28;20586;-69
2022/10/22 01:30:11;;;;;;;5.22;1.63;;;13.70;99.90;;;;;;5052651;28;20094;-69
2022/10/22 01:32:45;;;;;;;2.08;1.27;;;13.90;99.90;;;;;;5054311;28;20049;-69
2022/10/22 01:35:16;;;;;;;2.08;1.50;;;14.20;99.90;;;;;;5056362;28;20044;-69
2022/10/22 01:37:47;;;;;;;4.72;1.17;;;14.20;99.90;;;;;;5071770;28;20033;-68
2022/10/22 01:40:15;;;;;;;4.70;2.10;;;14.10;99.90;;;;;;5073274;28;20036;-70
2022/10/22 01:42:41;;;;;;;1.38;0.60;;;14.10;99.90;;;;;;5074684;28;20081;-69
2022/10/22 01:45:11;;;;;;;2.55;0.47;;;13.90;99.90;;;;;;5072594;28;20400;-69
2022/10/22 01:47:56;;;;;;;;;;;13.90;99.90;;;;;;5074710;28;20115;-69
2022/10/22 01:50:27;;;;;;;6.35;1.98;;;14.00;99.90;;;;;;5074391;28;19915;-70
2022/10/22 01:53:02;;;;;;;3.65;1.60;;;14.30;99.90;;;;;;5074382;28;20086;-69
2022/10/22 01:56:18;;;;;;;2.88;1.60;;;14.30;99.90;;;;;;5073110;28;20047;-68
2022/10/22 01:59:08;;;;;;;7.60;2.47;;;14.30;99.90;;;;;;5069868;28;20041;-69
2022/10/22 02:01:58;;;;;;;5.60;2.50;;;14.40;99.90;;;;;;5074092;28;20036;-69
2022/10/22 02:04:34;;;;;;;7.63;2.40;;;14.50;99.90;;;;;;5074086;28;20039;-69
2022/10/22 02:07:03;;;;;;;6.82;3.67;;;14.40;99.90;;;;;;5074264;28;20543;-69
2022/10/22 02:09:31;;;;;;;10.93;4.63;;;14.50;99.90;;;;;;5074224;28;20361;-69
2022/10/22 02:12:00;;;;;;;11.48;4.57;;;14.50;99.90;;;;;;5074064;28;20083;-68
2022/10/22 02:14:29;;;;;;;6.85;4.35;;;14.50;99.90;;;;;;5074024;28;20040;-70
2022/10/22 02:16:57;;;;;;;7.22;4.40;;;14.50;99.90;;;;;;5073920;28;20040;-69
2022/10/22 02:19:28;;;;;;;13.45;4.65;;;14.50;99.90;;;;;;5073986;28;20055;-70
2022/10/22 02:21:54;;;;;;;8.35;4.25;;;14.50;99.90;;;;;;5072539;28;20067;-69
2022/10/22 02:24:21;;;;;;;6.50;4.00;;;14.50;99.90;;;;;;5073903;28;20515;-69
2022/10/22 02:27:08;;;;;;;9.95;4.05;;;14.50;99.90;;;;;;5073883;28;20044;-69
2022/10/22 02:29:37;;;;;;;7.70;4.32;;;14.50;99.90;;;;;;5072685;28;20032;-68
2022/10/22 02:32:06;;;;;;;7.72;4.30;;;14.50;99.90;;;;;;5073819;28;20549;-70
2022/10/22 02:34:32;;;;;;;12.80;4.30;;;14.50;99.90;;;;;;5073923;28;20081;-69
2022/10/22 02:37:01;;;;;;;12.45;4.45;;;14.50;99.90;;;;;;5072631;28;20071;-69
2022/10/22 02:39:28;;;;;;;6.88;3.83;;;14.50;99.90;;;;;;5073726;28;20040;-69
2022/10/22 02:41:56;;;;;;;5.80;2.95;;;14.50;99.90;;;;;;5072434;28;20048;-68
2022/10/22 02:44:22;;;;;;;6.97;3.60;;;14.50;99.90;;;;;;5073730;28;20492;-69
2022/10/22 02:46:49;;;;;;;5.22;3.17;;;14.40;99.90;;;;;;5073946;28;20036;-69
2022/10/22 02:49:15;;;;;;;9.57;3.53;;;14.20;99.90;;;;;;5074191;28;20046;-69
2022/10/22 02:51:41;;;;;;;7.13;2.63;;;14.10;99.90;;;;;;5073623;28;20048;-69
2022/10/22 02:54:07;;;;;;;4.45;2.38;;;14.10;99.90;;;;;;5072500;28;20086;-70
2022/10/22 02:56:33;;;;;;;8.35;2.10;;;14.10;99.90;;;;;;5074870;28;20053;-69
2022/10/22 02:58:59;;;;;;;9.80;2.88;;;13.90;99.90;;;;;;5077689;28;20036;-69
2022/10/22 03:01:25;;;;;;;6.78;2.58;;;14.00;99.90;;;;;;5076263;28;20043;-69
2022/10/22 03:03:50;;;;;;;7.32;3.25;;;14.00;99.90;;;;;;5076225;28;20039;-69
2022/10/22 03:06:17;;;;;;;11.82;3.40;;;14.00;99.90;;;;;;5076118;28;20052;-68
2022/10/22 03:08:43;;;;;;;13.55;3.42;;;14.00;99.90;;;;;;5077424;28;20140;-69
2022/10/22 03:11:08;;;;;;;7.57;3.83;;;14.10;99.90;;;;;;5077440;28;20444;-68
2022/10/22 03:13:34;;;;;;;11.00;3.28;;;14.20;99.90;;;;;;5076049;28;20079;-70
2022/10/22 03:16:00;;;;;;;8.55;2.60;;;14.20;99.90;;;;;;5076001;28;20492;-69
2022/10/22 03:18:26;;;;;;;9.15;2.90;;;14.20;99.90;;;;;;5077359;28;20051;-68
2022/10/22 03:21:19;;;;;;;6.07;3.47;;;14.20;99.90;;;;;;5077226;28;20146;-70
2022/10/22 03:23:46;;;;;;;7.40;3.45;;;14.30;99.90;;;;;;5077088;28;20400;-68
2022/10/22 03:26:13;;;;;;;7.05;3.60;;;14.30;99.90;;;;;;5077105;28;20495;-69
2022/10/22 03:28:40;;;;;;;6.25;3.55;;;14.30;99.90;;;;;;5077199;28;20127;-68
2022/10/22 03:31:07;;;;;;;9.98;3.58;;;14.30;99.90;;;;;;5075719;28;20043;-68
2022/10/22 03:33:33;;;;;;;12.05;3.63;;;14.30;99.90;;;;;;5075465;28;20049;-69
2022/10/22 03:36:00;;;;;;;15.50;3.70;;;14.10;99.90;;;;;;5075658;28;20033;-69
2022/10/22 03:38:25;;;;;;;5.85;3.13;;;14.00;99.90;;;;;;5075769;28;20439;-70
2022/10/22 03:40:52;;;;;;;11.10;3.20;;;13.80;99.90;;;;;;5076839;28;20020;-70
2022/10/22 03:43:17;;;;;;;9.35;3.13;;;13.80;99.90;;;;;;5075381;28;20050;-69
2022/10/22 03:45:43;;;;;;;7.78;3.30;;;13.80;99.90;;;;;;5075413;28;20045;-69
2022/10/22 03:48:09;;;;;;;7.47;2.55;;;13.90;99.90;;;;;;5076705;28;20040;-69
2022/10/22 03:50:35;;;;;;;5.38;2.38;;;13.90;99.90;;;;;;5076717;28;20131;-69
2022/10/22 03:53:00;;;;;;;4.65;2.70;;;14.00;99.90;;;;;;5076632;28;20434;-69
2022/10/22 03:55:26;;;;;;;11.00;3.40;;;14.00;99.90;;;;;;5076746;28;20059;-69
2022/10/22 03:57:52;;;;;;;4.35;2.65;;;14.00;99.90;;;;;;5068873;28;20043;-69
2022/10/22 04:00:18;;;;;;;7.75;2.60;;;14.00;99.90;;;;;;5072358;28;20036;-69
2022/10/22 04:02:44;;;;;;;4.57;2.63;;;14.00;99.90;;;;;;5058740;28;20501;-69
2022/10/22 04:05:10;;;;;;;5.60;2.72;;;14.00;99.90;;;;;;5056373;28;20041;-70
2022/10/22 04:07:35;;;;;;;6.53;2.45;;;14.00;99.90;;;;;;5055307;28;20055;-69
2022/10/22 04:10:01;;;;;;;3.78;2.25;;;14.00;99.90;;;;;;5073042;28;20036;-70
2022/10/22 04:12:27;;;;;;;4.25;1.90;;;14.10;99.90;;;;;;5076198;28;20044;-69
2022/10/22 04:14:53;;;;;;;7.07;1.90;;;14.10;99.90;;;;;;5076290;28;20036;-69
2022/10/22 04:17:18;;;;;;;4.75;2.75;;;14.10;99.90;;;;;;5075998;28;20033;-70
2022/10/22 04:19:44;;;;;;;10.48;2.72;;;14.00;99.90;;;;;;5059804;28;20163;-70
2022/10/22 04:22:10;;;;;;;3.08;1.90;;;13.80;99.90;;;;;;5056051;28;20480;-70
2022/10/22 04:24:36;;;;;;;5.18;1.90;;;13.60;99.90;;;;;;5056144;28;20041;-70
2022/10/22 04:27:02;;;;;;;3.60;1.70;;;13.60;99.90;;;;;;5054704;28;20103;-69
2022/10/22 04:29:28;;;;;;;6.15;2.15;;;13.70;99.90;;;;;;5066021;28;20435;-69
2022/10/22 04:31:53;;;;;;;3.45;1.90;;;13.50;99.90;;;;;;5075521;28;20594;-69
2022/10/22 04:34:19;;;;;;;2.85;1.80;;;13.50;99.90;;;;;;5074467;28;20412;-69
2022/10/22 04:36:45;;;;;;;2.60;1.63;;;13.60;99.90;;;;;;5075735;28;20097;-69
2022/10/22 04:39:11;;;;;;;11.73;1.75;;;13.70;99.90;;;;;;5066148;28;20041;-69
2022/10/22 04:41:38;;;;;;;9.18;2.40;;;13.70;99.90;;;;;;5055577;28;20048;-69
2022/10/22 04:44:05;;;;;;;4.50;1.50;;;13.70;99.90;;;;;;5054323;28;20045;-69
2022/10/22 04:46:33;;;;;;;2.08;1.30;;;13.80;99.90;;;;;;5055498;28;20044;-69
2022/10/22 04:48:59;;;;;;;6.95;1.30;;;13.80;99.90;;;;;;5068891;28;20048;-69
2022/10/22 04:51:26;;;;;;;3.55;1.80;;;13.90;99.90;;;;;;5075501;28;20044;-69
2022/10/22 04:53:52;;;;;;;4.10;1.52;;;14.00;99.90;;;;;;5074234;28;20048;-70
2022/10/22 04:56:21;;;;;;;4.75;1.98;;;13.90;99.90;;;;;;5075291;28;20032;-69
2022/10/22 04:58:49;;;;;;;1.73;0.98;;;13.90;99.90;;;;;;5062932;28;20102;-69
2022/10/22 05:01:20;;;;;;;3.63;1.15;;;13.90;99.90;;;;;;5055058;28;20029;-69
2022/10/22 05:03:47;;;;;;;4.00;1.35;;;13.80;99.90;;;;;;5070607;28;20090;-69
2022/10/22 05:06:14;;;;;;;1.50;1.00;;;13.80;99.90;;;;;;5055325;28;20068;-69
2022/10/22 05:08:40;;;;;;;4.20;1.15;;;13.70;99.90;;;;;;5063996;28;20047;-69
2022/10/22 05:11:18;;;;;;;3.05;1.30;;;13.70;99.90;;;;;;5075108;28;20044;-69
2022/10/22 05:13:43;;;;;;;6.82;1.17;;;13.70;99.90;;;;;;5073381;28;20052;-70
2022/10/22 05:16:12;;;;;;;5.90;1.30;;;13.70;99.90;;;;;;5074953;28;20040;-70
2022/10/22 05:18:41;;;;;;;1.55;0.90;;;13.60;99.90;;;;;;5062824;28;20036;-69
2022/10/22 05:21:12;;;;;;;3.13;1.30;;;13.70;99.90;;;;;;5054571;28;20045;-69
2022/10/22 05:23:38;;;;;;;2.40;0.98;;;13.70;99.90;;;;;;5054518;28;20396;-69
2022/10/22 05:26:06;;;;;;;1.38;0.98;;;13.80;99.90;;;;;;5054578;28;20045;-70
2022/10/22 05:28:33;;;;;;;2.47;1.38;;;13.90;99.90;;;;;;5063251;28;20503;-69
2022/10/22 05:30:59;;;;;;;2.75;1.17;;;13.90;99.90;;;;;;5070558;28;20036;-70
2022/10/22 05:33:27;;;;;;;4.18;1.40;;;13.90;99.90;;;;;;5057800;28;20049;-70
2022/10/22 05:35:53;;;;;;;4.10;1.08;;;13.90;99.90;;;;;;5051159;28;20127;-70
2022/10/22 05:38:19;;;;;;;4.28;1.60;;;13.80;99.90;;;;;;5059189;28;20479;-69
2022/10/22 05:40:45;;;;;;;4.50;1.90;;;13.80;99.90;;;;;;5074007;28;20067;-69
2022/10/22 05:43:11;;;;;;;5.03;1.75;;;13.70;99.90;;;;;;5074502;28;20120;-69
2022/10/22 05:45:38;;;;;;;6.55;1.50;;;13.60;99.90;;;;;;5073011;28;20032;-69
2022/10/22 05:48:05;;;;;;;2.90;1.65;;;13.50;99.90;;;;;;5069507;28;20049;-69
2022/10/22 05:50:31;;;;;;;3.78;1.65;;;13.60;99.90;;;;;;5054303;28;20047;-69
2022/10/22 05:52:57;;;;;;;4.18;1.80;;;13.70;99.90;;;;;;5054158;28;20099;-70
2022/10/22 05:55:23;;;;;;;1.90;1.38;;;13.50;99.90;;;;;;5054294;28;20045;-69
2022/10/22 05:57:49;;;;;;;5.05;2.00;;;13.40;99.90;;;;;;5054998;28;20045;-70
2022/10/22 06:00:15;;;;;;;4.32;1.42;;;13.30;99.90;;;;;;5072855;28;20525;-70
2022/10/22 06:02:41;;;;;;;2.30;1.45;;;13.20;99.90;;;;;;5072985;28;20067;-69
2022/10/22 06:05:07;;;;;;;3.00;1.30;;;13.30;99.90;;;;;;5074009;28;20040;-70
2022/10/22 06:07:34;;;;;;;3.97;1.23;;;13.30;99.90;;;;;;5072464;28;20040;-70
2022/10/22 06:10:00;;;;;;;2.55;1.42;;;13.30;99.90;;;;;;5072843;28;20403;-69
2022/10/22 06:12:26;;;;;;;2.45;1.58;;;13.20;99.90;;;;;;5073956;28;20044;-69
2022/10/22 06:14:52;;;;;;;2.95;0.95;;;13.00;99.90;;;;;;5073963;28;20036;-70
2022/10/22 06:17:18;;;;;;;2.35;1.33;;;13.10;99.90;;;;;;5065983;28;20072;-70
2022/10/22 06:19:44;;;;;;;3.92;1.50;;;13.30;99.90;;;;;;5053733;28;20029;-68
2022/10/22 06:22:10;;;;;;;2.40;1.30;;;13.30;99.90;;;;;;5053714;28;20044;-69
2022/10/22 06:24:36;;;;;;;3.78;1.70;;;13.40;99.90;;;;;;5052531;28;20451;-69
2022/10/22 06:27:02;;;;;;;4.03;1.70;;;13.50;99.90;;;;;;5058833;28;20044;-70
2022/10/22 06:29:27;;;;;;;4.18;1.70;;;13.50;99.90;;;;;;5073868;28;20036;-69
2022/10/22 06:31:53;;;;;;;4.93;1.40;;;13.70;99.90;;;;;;5073669;28;20048;-70
2022/10/22 06:34:19;;;;;;;3.70;1.40;;;13.80;99.90;;;;;;5073820;28;20080;-69
2022/10/22 06:36:46;;;;;;;4.22;1.50;;;13.70;99.90;;;;;;5070494;28;20407;-69
2022/10/22 06:39:14;;;;;;;1.92;1.15;;;13.60;99.90;;;;;;5053732;28;20474;-70
2022/10/22 06:41:41;;;;;;;2.75;1.23;;;13.50;99.90;;;;;;5053849;28;20051;-70
2022/10/22 06:44:11;;;;;;;5.55;1.85;;;13.40;99.90;;;;;;5053711;28;20044;-70
2022/10/22 06:46:37;;;;;;;3.53;1.40;;;13.30;99.90;;;;;;5052560;28;20086;-70
2022/10/22 06:49:04;;;;;;;7.03;3.17;;;13.10;99.90;;;;;;5073593;28;20131;-70
2022/10/22 06:51:30;;;;;;;12.23;4.50;;;13.20;99.90;;;;;;5072699;28;20102;-70
2022/10/22 06:53:57;;;;;;;15.05;5.82;;;13.30;99.90;;;;;;5072210;28;20507;-69
2022/10/22 06:56:25;;;;;;;10.57;6.05;;;13.50;99.90;;;;;;5073439;28;20032;-70
2022/10/22 06:58:53;;;;;;;21.42;7.40;;;13.50;99.90;;;;;;5072203;28;20407;-69
2022/10/22 07:01:24;;;;;;;17.33;6.72;;;13.60;99.90;;;;;;5071783;28;20094;-70
2022/10/22 07:03:51;;;;;;;15.43;6.97;;;13.80;99.90;;;;;;5073410;28;20044;-69
2022/10/22 07:06:18;;;;;;;18.50;7.30;;;13.90;99.90;;;;;;5073389;28;20031;-69
2022/10/22 07:08:44;;;;;;;14.85;7.07;;;13.90;99.90;;;;;;5055167;28;20513;-69
2022/10/22 07:11:13;;;;;;;16.52;7.97;;;14.00;99.90;;;;;;5053199;28;20120;-70
2022/10/22 07:13:39;;;;;;;16.47;8.63;;;14.10;99.90;;;;;;5051764;28;20048;-70
2022/10/22 07:16:06;;;;;;;11.10;5.47;;;14.10;99.90;;;;;;5052060;28;20116;-70
2022/10/22 07:18:33;;;;;;;12.95;6.65;;;14.20;99.90;;;;;;5066929;28;20059;-70
2022/10/22 07:21:00;;;;;;;17.40;8.70;;;14.20;99.90;;;;;;5072120;28;20041;-69
2022/10/22 07:23:27;;;;;;;15.82;8.55;;;14.20;99.90;;;;;;5073319;28;20040;-68
2022/10/22 07:25:53;;;;;;;15.00;6.35;;;14.20;99.90;;;;;;5064972;28;20041;-70
2022/10/22 07:28:19;;;;;;;10.98;4.63;;;14.30;99.90;;;;;;5052996;28;20431;-68
2022/10/22 07:30:45;;;;;;;10.05;4.47;;;14.10;99.90;;;;;;5053030;28;20393;-68
2022/10/22 07:33:14;;;;;;;8.25;3.40;;;14.20;99.90;;;;;;5053739;28;20040;-68
2022/10/22 07:35:42;;;;;;;13.02;5.88;;;14.20;99.90;;;;;;5053955;28;20036;-70
2022/10/22 07:38:13;;;;;;;10.55;5.32;;;14.30;99.90;;;;;;5061238;28;20516;-70
2022/10/22 07:40:40;;;;;;;11.45;5.55;;;14.30;99.90;;;;;;5050777;28;20048;-69
2022/10/22 07:43:06;;;;;;;11.45;5.97;;;14.50;99.90;;;;;;5056042;28;20606;-69
2022/10/22 07:45:32;;;;;;;11.48;6.38;;;14.50;99.90;;;;;;5065399;28;20492;-70
2022/10/22 07:47:59;;;;;;;11.23;6.22;;;15.10;99.90;;;;;;5060867;28;20076;-70
2022/10/22 07:50:25;;;;;;;9.30;5.32;;;15.10;99.90;;;;;;5053826;28;20443;-70
2022/10/22 07:52:51;;;;;;;10.45;5.72;;;15.40;99.90;;;;;;5056585;28;21924;-69
2022/10/22 07:55:17;;;;;;;10.90;5.40;;;15.50;99.90;;;;;;5073061;28;20040;-70
2022/10/22 07:57:43;;;;;;;14.60;5.50;;;15.80;99.90;;;;;;5074833;28;20036;-70
2022/10/22 08:00:09;;;;;;;11.82;5.30;;;15.60;99.90;;;;;;5074066;28;20495;-69
2022/10/22 08:02:35;;;;;;;10.00;5.22;;;15.70;99.90;;;;;;5075334;28;20029;-70
2022/10/22 08:05:01;;;;;;;10.88;4.90;;;15.70;99.90;;;;;;5075859;28;20025;-69
2022/10/22 08:07:27;;;;;;;11.73;5.45;;;15.70;99.90;;;;;;5075714;28;20032;-70
2022/10/22 08:09:53;;;;;;;8.55;5.13;;;15.80;99.90;;;;;;5075619;28;20025;-69
2022/10/22 08:12:19;;;;;;;8.60;4.80;;;15.90;99.90;;;;;;5071187;28;20060;-70
2022/10/22 08:14:45;;;;;;;8.52;4.93;;;15.60;99.90;;;;;;5054384;28;20094;-69
2022/10/22 08:17:11;;;;;;;8.02;4.45;;;15.60;99.90;;;;;;5053944;28;20036;-70
2022/10/22 08:19:37;;;;;;;10.40;5.15;;;15.80;99.90;;;;;;5054069;28;20056;-70
2022/10/22 08:22:06;;;;;;;10.18;4.90;;;16.40;99.90;;;;;;5056160;28;20029;-70
2022/10/22 08:24:32;;;;;;;7.55;4.68;;;16.00;99.90;;;;;;5057620;28;20045;-70
2022/10/22 08:26:58;;;;;;;7.30;4.07;;;16.40;99.90;;;;;;5053801;28;20044;-70
2022/10/22 08:29:25;;;;;;;10.05;4.15;;;;;;;;;;5054034;28;20408;-70
2022/10/22 08:31:53;;;;;;;9.95;4.07;;;16.60;99.90;;;;;;5060991;28;20040;-70
2022/10/22 08:34:19;;;;;;;9.60;3.60;;;17.00;99.90;;;;;;5073770;28;20217;-70
2022/10/22 08:36:45;;;;;;;6.05;3.75;;;17.10;99.90;;;;;;5071880;28;20044;-70
2022/10/22 08:39:11;;;;;;;7.85;4.43;;;17.00;99.90;;;;;;5073288;28;20119;-70
2022/10/22 08:41:49;;;;;;;7.20;3.58;;;;;;;;;;5066213;28;20064;-71
2022/10/22 08:44:36;;;;;;;5.85;3.20;;;17.90;99.90;;;;;;5055686;28;20504;-70
2022/10/22 08:47:14;;;;;;;5.65;2.92;;;;;;;;;;5071912;28;20039;-70
2022/10/22 08:49:41;;;;;;;5.10;2.38;;;;;;;;;;5071278;28;20048;-70
2022/10/22 08:52:15;;;;;;;4.80;3.10;;;19.20;99.90;;;;;;5071902;28;20052;-70
2022/10/22 08:55:01;;;;;;;6.00;2.72;;;;;;;;;;5070382;28;20056;-70
2022/10/22 08:57:27;;;;;;;5.32;2.60;;;19.00;99.90;;;;;;5071007;28;20045;-69
2022/10/22 09:00:01;;;;;;;4.53;2.30;;;19.00;99.90;;;;;;5072053;28;20549;-70
2022/10/22 09:02:55;;;;;;;4.97;2.50;;;18.90;99.90;;;;;;5073027;28;20036;-70
2022/10/22 09:05:45;;;;;;;3.42;2.28;;;19.40;99.90;;;;;;5074222;28;20063;-70
2022/10/22 09:08:12;;;;;;;5.75;2.50;;;;;;;;;;5070684;28;20123;-69
2022/10/22 09:10:39;;;;;;;4.47;2.58;;;;;;;;;;5082247;28;20113;-70
2022/10/22 09:13:06;;;;;;;8.38;2.80;;;;;;;;;;5074407;28;20443;-70
2022/10/22 09:15:32;;;;;;;5.40;3.38;;;;;;;;;;5072698;28;20071;-70
2022/10/22 09:17:58;;;;;;;5.82;3.20;;;;;;;;;;5071945;28;20123;-69
2022/10/22 09:20:31;;;;;;;8.25;4.03;;;19.20;99.90;;;;;;5071826;28;20109;-70
2022/10/22 09:23:16;;;;;;;7.28;3.80;;;19.00;99.90;;;;;;5071434;28;20043;-70
2022/10/22 09:25:43;;;;;;;5.60;3.58;;;19.00;99.90;;;;;;5072176;28;20036;-69
2022/10/22 09:28:13;;;;;;;6.55;3.83;;;19.00;99.90;;;;;;5072581;28;20067;-69
2022/10/22 09:30:39;;;;;;;8.05;4.15;;;19.00;99.90;;;;;;5071419;28;20393;-69
2022/10/22 09:33:05;;;;;;;8.13;4.30;;;18.50;99.90;;;;;;5070774;28;20048;-69
2022/10/22 09:35:35;;;;;;;8.85;4.50;;;18.30;99.90;;;;;;5071641;28;20039;-71
2022/10/22 09:38:07;;;;;;;7.45;3.83;;;18.40;99.90;;;;;;5071560;28;20040;-70
2022/10/22 09:40:42;;;;;;;9.68;4.18;;;;;;;;;;5070940;28;20040;-70
2022/10/22 09:43:11;;;;;;;8.63;4.30;;;18.00;99.90;;;;;;5058835;28;20052;-70
2022/10/22 09:45:37;;;;;;;6.97;3.88;;;18.10;99.90;;;;;;5070761;28;20440;-71
2022/10/22 09:48:25;;;;;;;15.70;4.22;;;18.60;99.90;;;;;;5074685;28;20123;-70
2022/10/22 09:51:03;;;;;;;22.75;10.80;;;18.90;99.90;;;;;;5070568;28;20046;-71
2022/10/22 09:53:37;;;;;;;11.52;5.22;;;19.10;99.90;;;;;;5070273;28;20059;-71
2022/10/22 09:56:09;;;;;;;8.02;4.60;;;19.20;99.90;;;;;;5069869;28;20506;-71
2022/10/22 09:58:42;;;;;;;12.85;4.05;;;;;;;;;;5068793;28;20039;-71
2022/10/22 10:01:17;;;;;;;10.18;4.32;;;19.40;99.90;;;;;;5066057;28;20565;-71
2022/10/22 10:03:42;;;;;;;6.03;4.15;;;19.10;99.90;;;;;;5070163;28;20047;-71
2022/10/22 10:06:09;;;;;;;7.18;4.28;;;18.80;99.90;;;;;;5072131;28;20036;-70
2022/10/22 10:08:35;;;;;;;7.32;3.85;;;18.60;99.90;;;;;;5084285;28;20070;-70
2022/10/22 10:11:08;;;;;;;11.05;4.20;;;18.90;99.90;;;;;;5072529;28;20071;-70
2022/10/22 10:13:46;;;;;;;8.25;3.33;;;18.80;99.90;;;;;;5074421;28;20109;-70
2022/10/22 10:16:35;;;;;;;6.47;3.28;;;18.70;99.90;;;;;;5058754;28;20044;-70
2022/10/22 10:19:24;;;;;;;5.82;3.42;;;18.80;99.90;;;;;;5058835;28;20055;-70
2022/10/22 10:22:00;;;;;;;8.30;3.50;;;19.30;99.90;;;;;;5070388;28;20047;-70
2022/10/22 10:25:03;;;;;;;6.45;3.45;;;19.20;99.90;;;;;;5068182;28;20039;-70
2022/10/22 10:27:53;;;;;;;8.32;3.80;;;19.50;99.90;;;;;;5058779;28;20043;-72
2022/10/22 10:30:23;;;;;;;5.18;3.20;;;19.00;99.90;;;;;;5070144;28;20048;-72
2022/10/22 10:33:12;;;;;;;;;;;18.80;99.90;;;;;;5068363;28;20052;-71
2022/10/22 10:35:57;;;;;;;7.53;3.42;;;18.80;99.90;;;;;;5073840;28;20340;-71
2022/10/22 10:38:32;;;;;;;5.80;3.17;;;19.10;99.90;;;;;;5073450;28;20040;-70
2022/10/22 10:41:12;;;;;;;5.65;3.13;;;18.90;99.90;;;;;;5079004;28;20044;-74
2022/10/22 10:43:41;;;;;;;7.40;2.92;;;19.10;99.90;;;;;;5061908;28;20051;-72
2022/10/22 10:46:36;;;;;;;6.30;3.22;;;19.20;99.90;;;;;;5071495;28;20040;-72
2022/10/22 10:49:09;;;;;;;9.07;3.70;;;19.80;99.90;;;;;;5060147;28;20358;-72
2022/10/22 10:51:46;;;;;;;7.43;3.65;;;19.90;99.90;;;;;;5072176;28;20617;-73
2022/10/22 10:54:53;;;;;;;9.35;3.00;;;19.60;99.90;;;;;;5071531;28;20098;-72
2022/10/22 10:57:25;;;;;;;7.57;3.10;;;19.60;99.90;;;;;;5061928;28;20044;-72
2022/10/22 11:00:04;;;;;;;6.72;2.88;;;19.70;99.90;;;;;;5068113;28;20040;-71
2022/10/22 11:02:48;;;;;;;6.80;2.95;;;19.70;99.90;;;;;;5049423;28;20120;-73
2022/10/22 11:05:35;;;;;;;13.45;3.20;;;19.40;99.90;;;;;;5052072;28;20049;-72
2022/10/22 11:08:22;;;;;;;4.43;2.58;;;19.30;99.90;;;;;;5066531;28;20040;-72
2022/10/22 11:11:01;;;;;;;4.75;2.30;;;19.30;99.90;;;;;;5071024;28;20033;-71
2022/10/22 11:13:56;;;;;;;5.82;2.92;;;19.30;99.90;;;;;;5070127;28;20516;-71
2022/10/22 11:16:48;;;;;;;3.80;2.28;;;19.70;99.90;;;;;;5082503;28;20075;-71
2022/10/22 11:19:36;;;;;;;4.22;2.58;;;20.10;99.90;;;;;;5059926;28;20514;-71
2022/10/22 11:22:32;;;;;;;6.10;2.75;;;20.30;99.90;;;;;;5074556;28;20400;-71
2022/10/22 11:25:16;;;;;;;3.42;2.58;;;20.30;99.90;;;;;;5075416;28;20072;-71
2022/10/22 11:27:46;;;;;;;9.50;2.83;;;20.00;99.90;;;;;;5077669;28;20056;-71
2022/10/22 11:30:18;;;;;;;6.57;2.50;;;19.90;99.90;;;;;;5072736;28;20041;-71
2022/10/22 11:32:50;;;;;;;6.75;2.85;;;20.00;99.90;;;;;;5081797;28;20050;-71
2022/10/22 11:35:27;;;;;;;5.82;2.58;;;20.20;99.90;;;;;;5078864;28;20138;-70
2022/10/22 11:37:54;;;;;;;3.33;2.05;;;;;;;;;;5093803;28;20074;-70
2022/10/22 11:40:36;;;;;;;5.57;2.28;;;20.40;99.90;;;;;;5094948;28;20464;-71
2022/10/22 11:43:06;;;;;;;5.60;2.45;;;20.10;99.90;;;;;;5088846;28;20060;-70
2022/10/22 11:45:42;;;;;;;5.40;1.95;;;20.20;99.90;;;;;;5086010;28;20102;-71
2022/10/22 11:48:17;;;;;;;7.93;2.65;;;20.10;99.90;;;;;;5082653;28;20043;-71
2022/10/22 11:50:51;;;;;;;3.55;1.90;;;20.00;99.90;;;;;;5092928;28;20036;-71
2022/10/22 11:53:29;;;;;;;5.10;2.40;;;20.10;99.90;;;;;;5079709;28;20056;-71
2022/10/22 11:56:08;;;;;;;5.90;1.95;;;20.20;99.90;;;;;;5080509;28;20038;-70
2022/10/22 11:58:41;;;;;;;5.47;1.98;;;20.20;99.90;;;;;;5076195;28;20048;-71
2022/10/22 12:01:07;;;;;;;7.78;1.95;;;20.40;99.90;;;;;;5072007;28;20116;-70
2022/10/22 12:03:33;;;;;;;2.03;1.52;;;20.50;99.90;;;;;;5074579;28;20101;-71
2022/10/22 12:06:10;;;;;;;5.68;2.40;;;20.70;99.90;;;;;;5075513;28;20395;-71
2022/10/22 12:09:03;;;;;;;2.33;1.73;;;20.70;99.90;;;;;;5082197;28;20568;-71
2022/10/22 12:11:40;;;;;;;5.40;1.90;;;20.50;99.90;;;;;;5075199;28;20461;-71
2022/10/22 12:14:28;;;;;;;6.40;2.90;;;20.30;99.90;;;;;;5074604;28;20396;-72
2022/10/22 12:17:01;;;;;;;3.15;1.75;;;20.40;99.90;;;;;;5075932;28;20048;-70
2022/10/22 12:19:27;;;;;;;4.70;2.15;;;20.40;99.90;;;;;;5078740;28;20047;-71
2022/10/22 12:22:25;;;;;;;3.05;1.73;;;20.40;99.90;;;;;;5092231;28;20601;-71
2022/10/22 12:28:17;;;;;;;5.20;1.70;;;20.20;99.90;;;;;;5078974;28;20028;-71
2022/10/22 12:30:43;;;;;;;5.85;2.50;;;20.20;99.90;;;;;;5075541;28;20146;-71
2022/10/22 12:33:22;;;;;;;14.98;4.35;;;20.30;99.90;;;;;;5076424;28;20071;-71
2022/10/22 12:35:51;;;;;;;4.78;2.47;;;20.20;99.90;;;;;;5076158;28;20174;-71
2022/10/22 12:38:22;;;;;;;5.57;2.45;;;20.20;99.90;;;;;;5073947;28;20053;-70
2022/10/22 12:41:10;;;;;;;3.95;1.90;;;20.10;99.90;;;;;;5077950;28;20032;-70
2022/10/22 12:43:38;;;;;;;3.33;1.83;;;20.50;99.90;;;;;;5076982;28;20036;-71
2022/10/22 12:46:08;;;;;;;3.40;1.77;;;20.40;99.90;;;;;;5064228;28;20055;-71
2022/10/22 12:48:38;;;;;;;4.40;2.28;;;20.10;99.90;;;;;;5076291;28;20097;-71
2022/10/22 12:51:08;;;;;;;3.65;2.13;;;20.20;99.90;;;;;;5084659;28;20032;-71
2022/10/22 12:53:38;;;;;;;6.45;2.53;;;20.30;99.90;;;;;;5076859;28;20056;-70
2022/10/22 12:59:35;;;;;;;6.22;2.08;;;20.30;99.90;;;;;;5071716;28;20039;-71
2022/10/22 13:02:03;;;;;;;2.80;1.95;;;20.50;99.90;;;;;;5075065;28;20052;-71
2022/10/22 13:04:34;;;;;;;8.23;2.75;;;20.50;99.90;;;;;;5074701;28;20028;-71
2022/10/22 13:07:12;;;;;;;7.55;2.22;;;20.50;99.90;;;;;;5074981;28;20446;-71
2022/10/22 13:09:59;;;;;;;7.07;2.38;;;20.60;99.90;;;;;;5076106;28;20036;-72
2022/10/22 13:12:27;;;;;;;7.18;2.30;;;20.70;99.90;;;;;;5086845;28;20577;-71
2022/10/22 13:14:53;;;;;;;12.68;3.08;;;20.70;99.90;;;;;;5075355;28;20055;-71
2022/10/22 13:17:36;;;;;;;5.15;2.47;;;20.90;99.90;;;;;;5081537;28;20036;-71